sensor_id;sensor_type;location;lat;lon;timestamp;P1;durP1;ratioP1;P2;durP2;ratioP2
17814;SDS011;9031;50.974;11.330;2023-12-20T00:01:31;1.07;;;0.70;;
17814;SDS011;9031;50.974;11.330;2023-12-20T00:03:56;0.70;;;0.70;;
17814;SDS011;9031;50.974;11.330;2023-12-20T00:06:22;0.50;;;0.50;;
17814;SDS011;9031;50.974;11.330;2023-12-20T00:08:47;0.60;;;0.60;;
17814;SDS011;9031;50.974;11.330;2023-12-20T00:11:13;0.67;;;0.67;;
17814;SDS011;9031;50.974;11.330;2023-12-20T00:13:38;0.63;;;0.63;;
17814;SDS011;9031;50.974;11.330;2023-12-20T00:16:04;2.00;;;0.70;;
17814;SDS011;9031;50.974;11.330;2023-12-20T00:18:29;0.53;;;0.53;;
17814;SDS011;9031;50.974;11.330;2023-12-20T00:20:55;1.60;;;0.70;;
17814;SDS011;9031;50.974;11.330;2023-12-20T00:23:20;0.50;;;0.50;;
17814;SDS011;9031;50.974;11.330;2023-12-20T00:25:48;0.50;;;0.50;;
17814;SDS011;9031;50.974;11.330;2023-12-20T00:28:13;0.60;;;0.60;;
17814;SDS011;9031;50.974;11.330;2023-12-20T00:30:39;2.10;;;0.83;;
17814;SDS011;9031;50.974;11.330;2023-12-20T00:33:04;0.77;;;0.70;;
17814;SDS011;9031;50.974;11.330;2023-12-20T00:35:30;4.10;;;2.73;;
17814;SDS011;9031;50.974;11.330;2023-12-20T00:37:55;0.67;;;0.67;;
17814;SDS011;9031;50.974;11.330;2023-12-20T00:40:21;0.73;;;0.73;;
17814;SDS011;9031;50.974;11.330;2023-12-20T00:42:47;0.60;;;0.60;;
17814;SDS011;9031;50.974;11.330;2023-12-20T00:45:13;5.10;;;0.50;;
17814;SDS011;9031;50.974;11.330;2023-12-20T00:47:39;0.60;;;0.60;;
17814;SDS011;9031;50.974;11.330;2023-12-20T00:50:05;0.40;;;0.40;;
17814;SDS011;9031;50.974;11.330;2023-12-20T00:52:31;0.87;;;0.80;;
17814;SDS011;9031;50.974;11.330;2023-12-20T00:54:57;0.40;;;0.40;;
17814;SDS011;9031;50.974;11.330;2023-12-20T00:57:22;0.50;;;0.50;;
17814;SDS011;9031;50.974;11.330;2023-12-20T00:59:48;0.50;;;0.50;;
17814;SDS011;9031;50.974;11.330;2023-12-20T01:02:13;0.50;;;0.50;;
17814;SDS011;9031;50.974;11.330;2023-12-20T01:04:39;3.10;;;1.10;;
17814;SDS011;9031;50.974;11.330;2023-12-20T01:07:04;0.60;;;0.60;;
17814;SDS011;9031;50.974;11.330;2023-12-20T01:09:30;0.67;;;0.67;;
17814;SDS011;9031;50.974;11.330;2023-12-20T01:11:55;0.47;;;0.47;;
17814;SDS011;9031;50.974;11.330;2023-12-20T01:14:21;0.40;;;0.40;;
17814;SDS011;9031;50.974;11.330;2023-12-20T01:16:47;0.43;;;0.43;;
17814;SDS011;9031;50.974;11.330;2023-12-20T01:19:12;1.23;;;0.60;;
17814;SDS011;9031;50.974;11.330;2023-12-20T01:21:39;0.50;;;0.50;;
17814;SDS011;9031;50.974;11.330;2023-12-20T01:24:05;0.40;;;0.40;;
17814;SDS011;9031;50.974;11.330;2023-12-20T01:26:30;0.40;;;0.40;;
17814;SDS011;9031;50.974;11.330;2023-12-20T01:28:56;0.57;;;0.50;;
17814;SDS011;9031;50.974;11.330;2023-12-20T01:31:21;0.87;;;0.73;;
17814;SDS011;9031;50.974;11.330;2023-12-20T01:33:47;0.90;;;0.90;;
17814;SDS011;9031;50.974;11.330;2023-12-20T01:36:12;0.57;;;0.57;;
17814;SDS011;9031;50.974;11.330;2023-12-20T01:38:38;0.80;;;0.80;;
17814;SDS011;9031;50.974;11.330;2023-12-20T01:41:04;0.80;;;0.80;;
17814;SDS011;9031;50.974;11.330;2023-12-20T01:43:29;0.70;;;0.70;;
17814;SDS011;9031;50.974;11.330;2023-12-20T01:45:58;0.70;;;0.70;;
17814;SDS011;9031;50.974;11.330;2023-12-20T01:48:24;0.80;;;0.80;;
17814;SDS011;9031;50.974;11.330;2023-12-20T01:50:51;0.70;;;0.70;;
17814;SDS011;9031;50.974;11.330;2023-12-20T01:53:17;0.93;;;0.57;;
17814;SDS011;9031;50.974;11.330;2023-12-20T01:55:45;0.57;;;0.57;;
17814;SDS011;9031;50.974;11.330;2023-12-20T01:58:12;0.60;;;0.60;;
17814;SDS011;9031;50.974;11.330;2023-12-20T02:00:39;0.67;;;0.67;;
17814;SDS011;9031;50.974;11.330;2023-12-20T02:03:04;0.50;;;0.50;;
17814;SDS011;9031;50.974;11.330;2023-12-20T02:05:31;0.50;;;0.50;;
17814;SDS011;9031;50.974;11.330;2023-12-20T02:07:57;0.70;;;0.70;;
17814;SDS011;9031;50.974;11.330;2023-12-20T02:10:23;0.60;;;0.60;;
17814;SDS011;9031;50.974;11.330;2023-12-20T02:12:49;0.50;;;0.50;;
17814;SDS011;9031;50.974;11.330;2023-12-20T02:15:14;0.70;;;0.70;;
17814;SDS011;9031;50.974;11.330;2023-12-20T02:17:40;0.70;;;0.70;;
17814;SDS011;9031;50.974;11.330;2023-12-20T02:20:06;0.50;;;0.50;;
17814;SDS011;9031;50.974;11.330;2023-12-20T02:22:32;0.53;;;0.53;;
17814;SDS011;9031;50.974;11.330;2023-12-20T02:24:57;0.50;;;0.50;;
17814;SDS011;9031;50.974;11.330;2023-12-20T02:27:23;0.53;;;0.53;;
17814;SDS011;9031;50.974;11.330;2023-12-20T02:29:48;0.50;;;0.50;;
17814;SDS011;9031;50.974;11.330;2023-12-20T02:32:15;0.50;;;0.50;;
17814;SDS011;9031;50.974;11.330;2023-12-20T02:34:41;0.60;;;0.60;;
17814;SDS011;9031;50.974;11.330;2023-12-20T02:37:07;0.60;;;0.60;;
17814;SDS011;9031;50.974;11.330;2023-12-20T02:39:32;0.50;;;0.50;;
17814;SDS011;9031;50.974;11.330;2023-12-20T02:41:58;0.50;;;0.50;;
17814;SDS011;9031;50.974;11.330;2023-12-20T02:44:23;0.50;;;0.50;;
17814;SDS011;9031;50.974;11.330;2023-12-20T02:46:49;0.50;;;0.50;;
17814;SDS011;9031;50.974;11.330;2023-12-20T02:49:15;6.43;;;1.13;;
17814;SDS011;9031;50.974;11.330;2023-12-20T02:51:40;1.40;;;0.67;;
17814;SDS011;9031;50.974;11.330;2023-12-20T02:54:06;0.60;;;0.60;;
17814;SDS011;9031;50.974;11.330;2023-12-20T02:56:32;0.50;;;0.50;;
17814;SDS011;9031;50.974;11.330;2023-12-20T02:58:58;0.50;;;0.50;;
17814;SDS011;9031;50.974;11.330;2023-12-20T03:01:23;0.50;;;0.50;;
17814;SDS011;9031;50.974;11.330;2023-12-20T03:03:49;0.70;;;0.70;;
17814;SDS011;9031;50.974;11.330;2023-12-20T03:06:18;0.40;;;0.40;;
17814;SDS011;9031;50.974;11.330;2023-12-20T03:08:44;1.03;;;0.73;;
17814;SDS011;9031;50.974;11.330;2023-12-20T03:11:09;0.50;;;0.50;;
17814;SDS011;9031;50.974;11.330;2023-12-20T03:13:35;0.70;;;0.70;;
17814;SDS011;9031;50.974;11.330;2023-12-20T03:16:00;0.60;;;0.60;;
17814;SDS011;9031;50.974;11.330;2023-12-20T03:18:26;0.60;;;0.60;;
17814;SDS011;9031;50.974;11.330;2023-12-20T03:20:53;0.50;;;0.50;;
17814;SDS011;9031;50.974;11.330;2023-12-20T03:23:18;0.50;;;0.50;;
17814;SDS011;9031;50.974;11.330;2023-12-20T03:25:44;0.50;;;0.50;;
17814;SDS011;9031;50.974;11.330;2023-12-20T03:28:10;0.40;;;0.40;;
17814;SDS011;9031;50.974;11.330;2023-12-20T03:30:35;0.47;;;0.47;;
17814;SDS011;9031;50.974;11.330;2023-12-20T03:33:00;1.20;;;0.40;;
17814;SDS011;9031;50.974;11.330;2023-12-20T03:35:26;0.30;;;0.30;;
17814;SDS011;9031;50.974;11.330;2023-12-20T03:37:51;0.50;;;0.50;;
17814;SDS011;9031;50.974;11.330;2023-12-20T03:40:17;0.50;;;0.50;;
17814;SDS011;9031;50.974;11.330;2023-12-20T03:42:43;0.47;;;0.47;;
17814;SDS011;9031;50.974;11.330;2023-12-20T03:45:09;0.70;;;0.70;;
17814;SDS011;9031;50.974;11.330;2023-12-20T03:47:34;0.50;;;0.50;;
17814;SDS011;9031;50.974;11.330;2023-12-20T03:50:00;0.60;;;0.60;;
17814;SDS011;9031;50.974;11.330;2023-12-20T03:52:25;0.47;;;0.47;;
17814;SDS011;9031;50.974;11.330;2023-12-20T03:54:51;0.50;;;0.50;;
17814;SDS011;9031;50.974;11.330;2023-12-20T03:57:16;0.50;;;0.50;;
17814;SDS011;9031;50.974;11.330;2023-12-20T03:59:42;0.50;;;0.50;;
17814;SDS011;9031;50.974;11.330;2023-12-20T04:02:07;0.60;;;0.60;;
17814;SDS011;9031;50.974;11.330;2023-12-20T04:04:33;0.60;;;0.60;;
17814;SDS011;9031;50.974;11.330;2023-12-20T04:06:58;0.50;;;0.50;;
17814;SDS011;9031;50.974;11.330;2023-12-20T04:09:24;0.70;;;0.70;;
17814;SDS011;9031;50.974;11.330;2023-12-20T04:11:49;0.60;;;0.60;;
17814;SDS011;9031;50.974;11.330;2023-12-20T04:14:15;0.87;;;0.77;;
17814;SDS011;9031;50.974;11.330;2023-12-20T04:16:40;0.70;;;0.70;;
17814;SDS011;9031;50.974;11.330;2023-12-20T04:19:06;0.40;;;0.40;;
17814;SDS011;9031;50.974;11.330;2023-12-20T04:21:31;0.63;;;0.63;;
17814;SDS011;9031;50.974;11.330;2023-12-20T04:23:56;1.63;;;0.87;;
17814;SDS011;9031;50.974;11.330;2023-12-20T04:26:22;0.60;;;0.60;;
17814;SDS011;9031;50.974;11.330;2023-12-20T04:28:47;0.60;;;0.60;;
17814;SDS011;9031;50.974;11.330;2023-12-20T04:31:13;0.77;;;0.77;;
17814;SDS011;9031;50.974;11.330;2023-12-20T04:33:38;1.17;;;0.70;;
17814;SDS011;9031;50.974;11.330;2023-12-20T04:36:04;0.90;;;0.90;;
17814;SDS011;9031;50.974;11.330;2023-12-20T04:38:30;2.17;;;1.10;;
17814;SDS011;9031;50.974;11.330;2023-12-20T04:40:55;0.80;;;0.80;;
17814;SDS011;9031;50.974;11.330;2023-12-20T04:43:21;0.90;;;0.90;;
17814;SDS011;9031;50.974;11.330;2023-12-20T04:45:47;0.70;;;0.70;;
17814;SDS011;9031;50.974;11.330;2023-12-20T04:48:12;0.80;;;0.80;;
17814;SDS011;9031;50.974;11.330;2023-12-20T04:50:37;1.43;;;1.17;;
17814;SDS011;9031;50.974;11.330;2023-12-20T04:53:03;3.17;;;1.23;;
17814;SDS011;9031;50.974;11.330;2023-12-20T04:55:28;0.77;;;0.77;;
17814;SDS011;9031;50.974;11.330;2023-12-20T04:57:54;3.03;;;0.90;;
17814;SDS011;9031;50.974;11.330;2023-12-20T05:00:21;0.97;;;0.97;;
17814;SDS011;9031;50.974;11.330;2023-12-20T05:02:47;0.97;;;0.97;;
17814;SDS011;9031;50.974;11.330;2023-12-20T05:05:12;1.93;;;1.10;;
17814;SDS011;9031;50.974;11.330;2023-12-20T05:07:40;2.30;;;1.37;;
17814;SDS011;9031;50.974;11.330;2023-12-20T05:10:05;0.90;;;0.90;;
17814;SDS011;9031;50.974;11.330;2023-12-20T05:12:33;1.60;;;1.10;;
17814;SDS011;9031;50.974;11.330;2023-12-20T05:14:58;1.50;;;1.40;;
17814;SDS011;9031;50.974;11.330;2023-12-20T05:17:24;1.40;;;1.30;;
17814;SDS011;9031;50.974;11.330;2023-12-20T05:19:50;1.30;;;1.20;;
17814;SDS011;9031;50.974;11.330;2023-12-20T05:22:15;1.30;;;1.27;;
17814;SDS011;9031;50.974;11.330;2023-12-20T05:24:41;1.20;;;1.20;;
17814;SDS011;9031;50.974;11.330;2023-12-20T05:27:06;1.50;;;1.40;;
17814;SDS011;9031;50.974;11.330;2023-12-20T05:29:32;1.40;;;1.30;;
17814;SDS011;9031;50.974;11.330;2023-12-20T05:31:58;1.23;;;1.20;;
17814;SDS011;9031;50.974;11.330;2023-12-20T05:34:23;1.53;;;1.50;;
17814;SDS011;9031;50.974;11.330;2023-12-20T05:36:49;1.40;;;1.30;;
17814;SDS011;9031;50.974;11.330;2023-12-20T05:39:14;1.60;;;1.20;;
17814;SDS011;9031;50.974;11.330;2023-12-20T05:41:40;1.77;;;1.40;;
17814;SDS011;9031;50.974;11.330;2023-12-20T05:44:05;1.50;;;1.40;;
17814;SDS011;9031;50.974;11.330;2023-12-20T05:46:31;1.77;;;1.67;;
17814;SDS011;9031;50.974;11.330;2023-12-20T05:48:56;2.17;;;1.80;;
17814;SDS011;9031;50.974;11.330;2023-12-20T05:51:22;2.10;;;1.90;;
17814;SDS011;9031;50.974;11.330;2023-12-20T05:53:47;1.77;;;1.67;;
17814;SDS011;9031;50.974;11.330;2023-12-20T05:56:14;1.90;;;1.77;;
17814;SDS011;9031;50.974;11.330;2023-12-20T05:58:40;1.80;;;1.70;;
17814;SDS011;9031;50.974;11.330;2023-12-20T06:01:06;2.27;;;1.40;;
17814;SDS011;9031;50.974;11.330;2023-12-20T06:03:33;3.17;;;1.90;;
17814;SDS011;9031;50.974;11.330;2023-12-20T06:05:58;5.60;;;1.63;;
17814;SDS011;9031;50.974;11.330;2023-12-20T06:08:25;1.53;;;1.43;;
17814;SDS011;9031;50.974;11.330;2023-12-20T06:10:51;2.10;;;1.90;;
17814;SDS011;9031;50.974;11.330;2023-12-20T06:13:16;2.03;;;1.80;;
17814;SDS011;9031;50.974;11.330;2023-12-20T06:15:42;1.50;;;1.40;;
17814;SDS011;9031;50.974;11.330;2023-12-20T06:18:08;1.50;;;1.40;;
17814;SDS011;9031;50.974;11.330;2023-12-20T06:20:33;1.93;;;1.23;;
17814;SDS011;9031;50.974;11.330;2023-12-20T06:22:58;1.40;;;1.30;;
17814;SDS011;9031;50.974;11.330;2023-12-20T06:25:24;1.80;;;1.70;;
17814;SDS011;9031;50.974;11.330;2023-12-20T06:27:50;1.40;;;1.30;;
17814;SDS011;9031;50.974;11.330;2023-12-20T06:30:16;2.67;;;1.90;;
17814;SDS011;9031;50.974;11.330;2023-12-20T06:32:41;1.93;;;1.83;;
17814;SDS011;9031;50.974;11.330;2023-12-20T06:35:08;1.60;;;1.50;;
17814;SDS011;9031;50.974;11.330;2023-12-20T06:37:34;4.10;;;1.80;;
17814;SDS011;9031;50.974;11.330;2023-12-20T06:39:59;3.00;;;1.93;;
17814;SDS011;9031;50.974;11.330;2023-12-20T06:42:25;2.37;;;2.17;;
17814;SDS011;9031;50.974;11.330;2023-12-20T06:44:50;7.27;;;2.20;;
17814;SDS011;9031;50.974;11.330;2023-12-20T06:47:16;5.17;;;2.40;;
17814;SDS011;9031;50.974;11.330;2023-12-20T06:49:41;3.60;;;2.00;;
17814;SDS011;9031;50.974;11.330;2023-12-20T06:52:07;2.40;;;2.20;;
17814;SDS011;9031;50.974;11.330;2023-12-20T06:54:32;2.30;;;2.20;;
17814;SDS011;9031;50.974;11.330;2023-12-20T06:56:59;2.33;;;2.13;;
17814;SDS011;9031;50.974;11.330;2023-12-20T06:59:25;3.40;;;2.30;;
17814;SDS011;9031;50.974;11.330;2023-12-20T07:01:51;2.60;;;2.30;;
17814;SDS011;9031;50.974;11.330;2023-12-20T07:04:16;3.67;;;2.40;;
17814;SDS011;9031;50.974;11.330;2023-12-20T07:06:45;4.00;;;2.10;;
17814;SDS011;9031;50.974;11.330;2023-12-20T07:09:11;11.10;;;2.97;;
17814;SDS011;9031;50.974;11.330;2023-12-20T07:11:38;6.27;;;2.10;;
17814;SDS011;9031;50.974;11.330;2023-12-20T07:14:03;3.30;;;2.00;;
17814;SDS011;9031;50.974;11.330;2023-12-20T07:16:29;4.53;;;2.03;;
17814;SDS011;9031;50.974;11.330;2023-12-20T07:18:54;4.40;;;2.00;;
17814;SDS011;9031;50.974;11.330;2023-12-20T07:21:21;2.57;;;1.77;;
17814;SDS011;9031;50.974;11.330;2023-12-20T07:23:46;3.37;;;1.60;;
17814;SDS011;9031;50.974;11.330;2023-12-20T07:26:12;2.17;;;1.70;;
17814;SDS011;9031;50.974;11.330;2023-12-20T07:28:37;3.07;;;1.77;;
17814;SDS011;9031;50.974;11.330;2023-12-20T07:31:03;1.67;;;1.50;;
17814;SDS011;9031;50.974;11.330;2023-12-20T07:33:28;4.07;;;2.23;;
17814;SDS011;9031;50.974;11.330;2023-12-20T07:35:54;2.67;;;2.00;;
17814;SDS011;9031;50.974;11.330;2023-12-20T07:38:19;2.37;;;1.80;;
17814;SDS011;9031;50.974;11.330;2023-12-20T07:40:45;1.97;;;1.87;;
17814;SDS011;9031;50.974;11.330;2023-12-20T07:43:10;2.50;;;2.30;;
17814;SDS011;9031;50.974;11.330;2023-12-20T07:45:36;4.10;;;2.53;;
17814;SDS011;9031;50.974;11.330;2023-12-20T07:48:01;2.93;;;2.07;;
17814;SDS011;9031;50.974;11.330;2023-12-20T07:50:27;2.90;;;2.47;;
17814;SDS011;9031;50.974;11.330;2023-12-20T07:52:52;3.93;;;2.80;;
17814;SDS011;9031;50.974;11.330;2023-12-20T07:55:18;3.30;;;2.40;;
17814;SDS011;9031;50.974;11.330;2023-12-20T07:57:43;5.23;;;2.60;;
17814;SDS011;9031;50.974;11.330;2023-12-20T08:00:09;4.80;;;2.50;;
17814;SDS011;9031;50.974;11.330;2023-12-20T08:02:35;2.80;;;2.20;;
17814;SDS011;9031;50.974;11.330;2023-12-20T08:05:00;4.93;;;2.63;;
17814;SDS011;9031;50.974;11.330;2023-12-20T08:07:26;5.10;;;2.43;;
17814;SDS011;9031;50.974;11.330;2023-12-20T08:09:51;2.73;;;2.53;;
17814;SDS011;9031;50.974;11.330;2023-12-20T08:12:18;3.07;;;2.50;;
17814;SDS011;9031;50.974;11.330;2023-12-20T08:14:43;2.70;;;2.50;;
17814;SDS011;9031;50.974;11.330;2023-12-20T08:17:08;2.50;;;2.30;;
17814;SDS011;9031;50.974;11.330;2023-12-20T08:19:34;3.47;;;2.43;;
17814;SDS011;9031;50.974;11.330;2023-12-20T08:21:59;6.63;;;2.60;;
17814;SDS011;9031;50.974;11.330;2023-12-20T08:24:25;5.27;;;2.50;;
17814;SDS011;9031;50.974;11.330;2023-12-20T08:26:50;3.40;;;2.07;;
17814;SDS011;9031;50.974;11.330;2023-12-20T08:29:16;6.13;;;2.70;;
17814;SDS011;9031;50.974;11.330;2023-12-20T08:31:41;4.43;;;2.40;;
17814;SDS011;9031;50.974;11.330;2023-12-20T08:34:07;4.40;;;2.80;;
17814;SDS011;9031;50.974;11.330;2023-12-20T08:36:32;9.77;;;2.83;;
17814;SDS011;9031;50.974;11.330;2023-12-20T08:38:58;2.20;;;2.00;;
17814;SDS011;9031;50.974;11.330;2023-12-20T08:41:25;3.73;;;2.20;;
17814;SDS011;9031;50.974;11.330;2023-12-20T08:43:51;2.80;;;2.30;;
17814;SDS011;9031;50.974;11.330;2023-12-20T08:46:16;4.73;;;2.37;;
17814;SDS011;9031;50.974;11.330;2023-12-20T08:48:42;3.17;;;2.10;;
17814;SDS011;9031;50.974;11.330;2023-12-20T08:51:07;4.37;;;1.93;;
17814;SDS011;9031;50.974;11.330;2023-12-20T08:53:33;2.57;;;2.20;;
17814;SDS011;9031;50.974;11.330;2023-12-20T08:55:59;5.40;;;1.97;;
17814;SDS011;9031;50.974;11.330;2023-12-20T08:58:26;3.07;;;1.97;;
17814;SDS011;9031;50.974;11.330;2023-12-20T09:00:52;2.53;;;1.87;;
17814;SDS011;9031;50.974;11.330;2023-12-20T09:03:18;4.43;;;1.80;;
17814;SDS011;9031;50.974;11.330;2023-12-20T09:05:43;3.67;;;1.60;;
17814;SDS011;9031;50.974;11.330;2023-12-20T09:08:09;4.53;;;1.83;;
17814;SDS011;9031;50.974;11.330;2023-12-20T09:10:35;6.00;;;2.60;;
17814;SDS011;9031;50.974;11.330;2023-12-20T09:13:02;5.83;;;2.13;;
17814;SDS011;9031;50.974;11.330;2023-12-20T09:15:27;5.90;;;1.90;;
17814;SDS011;9031;50.974;11.330;2023-12-20T09:17:55;2.40;;;1.83;;
17814;SDS011;9031;50.974;11.330;2023-12-20T09:20:20;3.97;;;1.90;;
17814;SDS011;9031;50.974;11.330;2023-12-20T09:22:48;3.37;;;1.73;;
17814;SDS011;9031;50.974;11.330;2023-12-20T09:25:13;2.63;;;1.53;;
17814;SDS011;9031;50.974;11.330;2023-12-20T09:27:40;5.20;;;1.70;;
17814;SDS011;9031;50.974;11.330;2023-12-20T09:30:06;2.93;;;1.70;;
17814;SDS011;9031;50.974;11.330;2023-12-20T09:32:32;3.63;;;1.50;;
17814;SDS011;9031;50.974;11.330;2023-12-20T09:34:58;4.10;;;1.43;;
17814;SDS011;9031;50.974;11.330;2023-12-20T09:37:26;2.73;;;1.40;;
17814;SDS011;9031;50.974;11.330;2023-12-20T09:39:52;2.43;;;1.57;;
17814;SDS011;9031;50.974;11.330;2023-12-20T09:42:19;3.40;;;1.20;;
17814;SDS011;9031;50.974;11.330;2023-12-20T09:44:51;5.30;;;1.63;;
17814;SDS011;9031;50.974;11.330;2023-12-20T09:47:16;4.20;;;1.30;;
17814;SDS011;9031;50.974;11.330;2023-12-20T09:49:47;4.77;;;1.40;;
17814;SDS011;9031;50.974;11.330;2023-12-20T09:52:13;3.03;;;1.67;;
17814;SDS011;9031;50.974;11.330;2023-12-20T09:54:40;3.03;;;1.37;;
17814;SDS011;9031;50.974;11.330;2023-12-20T09:57:08;5.20;;;1.73;;
17814;SDS011;9031;50.974;11.330;2023-12-20T09:59:34;5.57;;;1.80;;
17814;SDS011;9031;50.974;11.330;2023-12-20T10:02:00;2.30;;;1.30;;
17814;SDS011;9031;50.974;11.330;2023-12-20T10:04:29;3.43;;;1.50;;
17814;SDS011;9031;50.974;11.330;2023-12-20T10:07:01;7.40;;;1.67;;
17814;SDS011;9031;50.974;11.330;2023-12-20T10:09:28;2.40;;;1.30;;
17814;SDS011;9031;50.974;11.330;2023-12-20T10:11:56;3.43;;;1.77;;
17814;SDS011;9031;50.974;11.330;2023-12-20T10:14:22;11.73;;;1.73;;
17814;SDS011;9031;50.974;11.330;2023-12-20T10:16:49;4.40;;;2.47;;
17814;SDS011;9031;50.974;11.330;2023-12-20T10:19:16;12.40;;;1.83;;
17814;SDS011;9031;50.974;11.330;2023-12-20T10:21:43;3.23;;;1.33;;
17814;SDS011;9031;50.974;11.330;2023-12-20T10:24:09;5.17;;;1.57;;
17814;SDS011;9031;50.974;11.330;2023-12-20T10:26:42;3.40;;;1.27;;
17814;SDS011;9031;50.974;11.330;2023-12-20T10:29:07;5.50;;;1.60;;
17814;SDS011;9031;50.974;11.330;2023-12-20T10:31:33;3.53;;;1.40;;
17814;SDS011;9031;50.974;11.330;2023-12-20T10:34:00;3.80;;;1.30;;
17814;SDS011;9031;50.974;11.330;2023-12-20T10:36:27;5.27;;;1.60;;
17814;SDS011;9031;50.974;11.330;2023-12-20T10:38:55;5.97;;;1.50;;
17814;SDS011;9031;50.974;11.330;2023-12-20T10:41:40;2.90;;;1.20;;
17814;SDS011;9031;50.974;11.330;2023-12-20T10:44:08;5.20;;;1.43;;
17814;SDS011;9031;50.974;11.330;2023-12-20T10:46:35;7.50;;;1.83;;
17814;SDS011;9031;50.974;11.330;2023-12-20T10:49:02;4.57;;;1.40;;
17814;SDS011;9031;50.974;11.330;2023-12-20T10:51:29;4.30;;;1.40;;
17814;SDS011;9031;50.974;11.330;2023-12-20T10:53:56;6.70;;;1.60;;
17814;SDS011;9031;50.974;11.330;2023-12-20T10:56:22;11.57;;;1.83;;
17814;SDS011;9031;50.974;11.330;2023-12-20T10:58:51;2.00;;;1.50;;
17814;SDS011;9031;50.974;11.330;2023-12-20T11:01:17;2.50;;;1.30;;
17814;SDS011;9031;50.974;11.330;2023-12-20T11:03:50;4.23;;;1.30;;
17814;SDS011;9031;50.974;11.330;2023-12-20T11:06:27;4.43;;;1.90;;
17814;SDS011;9031;50.974;11.330;2023-12-20T11:09:00;4.17;;;1.63;;
17814;SDS011;9031;50.974;11.330;2023-12-20T11:11:39;1.83;;;1.20;;
17814;SDS011;9031;50.974;11.330;2023-12-20T11:14:22;3.97;;;1.20;;
17814;SDS011;9031;50.974;11.330;2023-12-20T11:17:05;3.03;;;1.43;;
17814;SDS011;9031;50.974;11.330;2023-12-20T11:19:38;4.30;;;1.90;;
17814;SDS011;9031;50.974;11.330;2023-12-20T11:22:31;2.43;;;1.67;;
17814;SDS011;9031;50.974;11.330;2023-12-20T11:24:59;5.20;;;1.40;;
17814;SDS011;9031;50.974;11.330;2023-12-20T11:27:33;2.27;;;1.30;;
17814;SDS011;9031;50.974;11.330;2023-12-20T11:29:59;6.77;;;1.77;;
17814;SDS011;9031;50.974;11.330;2023-12-20T11:32:27;2.47;;;1.10;;
17814;SDS011;9031;50.974;11.330;2023-12-20T11:35:38;4.73;;;1.87;;
17814;SDS011;9031;50.974;11.330;2023-12-20T11:37:40;2.47;;;1.33;;
17814;SDS011;9031;50.974;11.330;2023-12-20T11:40:08;2.33;;;1.27;;
17814;SDS011;9031;50.974;11.330;2023-12-20T11:42:40;4.23;;;1.57;;
17814;SDS011;9031;50.974;11.330;2023-12-20T11:45:19;3.03;;;1.37;;
17814;SDS011;9031;50.974;11.330;2023-12-20T11:47:47;7.50;;;1.50;;
17814;SDS011;9031;50.974;11.330;2023-12-20T11:50:16;3.27;;;1.20;;
17814;SDS011;9031;50.974;11.330;2023-12-20T11:52:43;3.67;;;1.20;;
17814;SDS011;9031;50.974;11.330;2023-12-20T11:55:08;2.77;;;1.20;;
17814;SDS011;9031;50.974;11.330;2023-12-20T11:57:34;4.13;;;1.40;;
17814;SDS011;9031;50.974;11.330;2023-12-20T12:00:01;2.20;;;0.97;;
17814;SDS011;9031;50.974;11.330;2023-12-20T12:02:27;4.33;;;1.13;;
17814;SDS011;9031;50.974;11.330;2023-12-20T12:04:53;6.93;;;1.37;;
17814;SDS011;9031;50.974;11.330;2023-12-20T12:07:19;2.93;;;1.10;;
17814;SDS011;9031;50.974;11.330;2023-12-20T12:09:45;4.70;;;1.63;;
17814;SDS011;9031;50.974;11.330;2023-12-20T12:12:11;3.63;;;1.33;;
17814;SDS011;9031;50.974;11.330;2023-12-20T12:14:38;4.70;;;1.50;;
17814;SDS011;9031;50.974;11.330;2023-12-20T12:17:05;3.67;;;1.40;;
17814;SDS011;9031;50.974;11.330;2023-12-20T12:19:39;4.53;;;1.30;;
17814;SDS011;9031;50.974;11.330;2023-12-20T12:22:05;2.43;;;1.50;;
17814;SDS011;9031;50.974;11.330;2023-12-20T12:24:45;3.57;;;1.90;;
17814;SDS011;9031;50.974;11.330;2023-12-20T12:27:12;4.43;;;1.50;;
17814;SDS011;9031;50.974;11.330;2023-12-20T12:29:38;4.30;;;1.47;;
17814;SDS011;9031;50.974;11.330;2023-12-20T12:32:07;7.60;;;1.93;;
17814;SDS011;9031;50.974;11.330;2023-12-20T12:34:33;1.90;;;1.10;;
17814;SDS011;9031;50.974;11.330;2023-12-20T12:37:00;2.87;;;1.20;;
17814;SDS011;9031;50.974;11.330;2023-12-20T12:39:26;1.20;;;1.10;;
17814;SDS011;9031;50.974;11.330;2023-12-20T12:41:52;1.77;;;1.33;;
17814;SDS011;9031;50.974;11.330;2023-12-20T12:44:18;5.50;;;1.43;;
17814;SDS011;9031;50.974;11.330;2023-12-20T12:46:46;3.40;;;1.20;;
17814;SDS011;9031;50.974;11.330;2023-12-20T12:49:14;3.83;;;1.90;;
17814;SDS011;9031;50.974;11.330;2023-12-20T12:51:40;5.63;;;2.90;;
17814;SDS011;9031;50.974;11.330;2023-12-20T12:54:05;5.77;;;1.20;;
17814;SDS011;9031;50.974;11.330;2023-12-20T12:56:31;4.10;;;1.23;;
17814;SDS011;9031;50.974;11.330;2023-12-20T12:58:57;6.63;;;1.30;;
17814;SDS011;9031;50.974;11.330;2023-12-20T13:01:23;3.33;;;1.23;;
17814;SDS011;9031;50.974;11.330;2023-12-20T13:03:48;1.43;;;1.07;;
17814;SDS011;9031;50.974;11.330;2023-12-20T13:06:14;1.93;;;1.53;;
17814;SDS011;9031;50.974;11.330;2023-12-20T13:08:39;7.97;;;2.60;;
17814;SDS011;9031;50.974;11.330;2023-12-20T13:11:05;2.00;;;1.27;;
17814;SDS011;9031;50.974;11.330;2023-12-20T13:13:30;3.30;;;1.30;;
17814;SDS011;9031;50.974;11.330;2023-12-20T13:15:56;1.77;;;1.17;;
17814;SDS011;9031;50.974;11.330;2023-12-20T13:18:22;3.37;;;1.30;;
17814;SDS011;9031;50.974;11.330;2023-12-20T13:20:48;3.10;;;1.20;;
17814;SDS011;9031;50.974;11.330;2023-12-20T13:23:14;2.07;;;1.23;;
17814;SDS011;9031;50.974;11.330;2023-12-20T13:25:40;2.20;;;1.10;;
17814;SDS011;9031;50.974;11.330;2023-12-20T13:28:06;2.60;;;1.20;;
17814;SDS011;9031;50.974;11.330;2023-12-20T13:30:31;6.60;;;1.33;;
17814;SDS011;9031;50.974;11.330;2023-12-20T13:32:57;8.87;;;2.20;;
17814;SDS011;9031;50.974;11.330;2023-12-20T13:35:22;4.57;;;1.20;;
17814;SDS011;9031;50.974;11.330;2023-12-20T13:37:48;2.33;;;0.90;;
17814;SDS011;9031;50.974;11.330;2023-12-20T13:40:13;4.83;;;1.40;;
17814;SDS011;9031;50.974;11.330;2023-12-20T13:42:39;1.83;;;1.27;;
17814;SDS011;9031;50.974;11.330;2023-12-20T13:45:05;1.97;;;1.13;;
17814;SDS011;9031;50.974;11.330;2023-12-20T13:47:32;1.90;;;1.03;;
17814;SDS011;9031;50.974;11.330;2023-12-20T13:49:57;1.63;;;1.10;;
17814;SDS011;9031;50.974;11.330;2023-12-20T13:52:23;1.80;;;0.93;;
17814;SDS011;9031;50.974;11.330;2023-12-20T13:54:48;4.73;;;1.23;;
17814;SDS011;9031;50.974;11.330;2023-12-20T13:57:14;1.77;;;1.13;;
17814;SDS011;9031;50.974;11.330;2023-12-20T13:59:40;1.80;;;1.00;;
17814;SDS011;9031;50.974;11.330;2023-12-20T14:02:05;3.93;;;1.93;;
17814;SDS011;9031;50.974;11.330;2023-12-20T14:04:31;4.77;;;3.10;;
17814;SDS011;9031;50.974;11.330;2023-12-20T14:06:57;1.33;;;0.90;;
17814;SDS011;9031;50.974;11.330;2023-12-20T14:09:22;2.57;;;1.27;;
17814;SDS011;9031;50.974;11.330;2023-12-20T14:11:48;3.43;;;1.50;;
17814;SDS011;9031;50.974;11.330;2023-12-20T14:14:13;2.97;;;1.30;;
17814;SDS011;9031;50.974;11.330;2023-12-20T14:16:39;5.80;;;1.20;;
17814;SDS011;9031;50.974;11.330;2023-12-20T14:19:04;4.37;;;1.63;;
17814;SDS011;9031;50.974;11.330;2023-12-20T14:21:32;2.13;;;1.03;;
17814;SDS011;9031;50.974;11.330;2023-12-20T14:23:58;3.23;;;1.53;;
17814;SDS011;9031;50.974;11.330;2023-12-20T14:26:24;2.13;;;1.20;;
17814;SDS011;9031;50.974;11.330;2023-12-20T14:28:49;1.47;;;1.23;;
17814;SDS011;9031;50.974;11.330;2023-12-20T14:31:15;5.27;;;1.70;;
17814;SDS011;9031;50.974;11.330;2023-12-20T14:33:40;1.67;;;1.20;;
17814;SDS011;9031;50.974;11.330;2023-12-20T14:36:07;4.87;;;1.37;;
17814;SDS011;9031;50.974;11.330;2023-12-20T14:38:32;2.17;;;1.30;;
17814;SDS011;9031;50.974;11.330;2023-12-20T14:40:58;2.77;;;1.40;;
17814;SDS011;9031;50.974;11.330;2023-12-20T14:43:25;1.93;;;1.10;;